Time;durP1;ratioP1;P1;durP2;ratioP2;P2;SDS_P1;SDS_P2;PMS_P1;PMS_P2;Temp;Humidity;BMP_temperature;BMP_pressure;BME280_temperature;BME280_humidity;BME280_pressure;Samples;Min_cycle;Max_cycle;Signal;HPM_P1;HPM_P2
2021/01/15 00:01:40;;;;;;;22.70;13.05;;;1.90;99.90;;;;;;5032027;28;20072;-49
2021/01/15 00:04:06;;;;;;;22.80;13.07;;;1.90;99.90;;;;;;5032072;28;20509;-48
2021/01/15 00:06:31;;;;;;;21.30;12.18;;;1.90;99.90;;;;;;5030197;28;20087;-48
2021/01/15 00:08:58;;;;;;;24.23;13.98;;;2.00;99.90;;;;;;5032041;28;20028;-47
2021/01/15 00:11:30;;;;;;;21.50;12.27;;;1.90;99.90;;;;;;5032070;28;20112;-48
2021/01/15 00:13:56;;;;;;;23.58;12.77;;;2.00;99.90;;;;;;5030866;28;20021;-48
2021/01/15 00:16:25;;;;;;;22.10;13.05;;;2.00;99.90;;;;;;5031343;28;20440;-48
2021/01/15 00:18:53;;;;;;;23.05;12.90;;;1.90;99.90;;;;;;5031712;28;20088;-48
2021/01/15 00:21:22;;;;;;;21.67;12.18;;;1.90;99.90;;;;;;5031693;28;20018;-48
2021/01/15 00:23:49;;;;;;;20.13;12.02;;;1.90;99.90;;;;;;5031909;28;20013;-47
2021/01/15 00:26:19;;;;;;;24.52;12.20;;;1.90;99.90;;;;;;5031422;28;20581;-48
2021/01/15 00:28:45;;;;;;;22.42;13.43;;;2.00;99.90;;;;;;5030787;28;20021;-47
2021/01/15 00:31:11;;;;;;;20.42;11.90;;;2.00;99.90;;;;;;5030104;28;20026;-47
2021/01/15 00:33:36;;;;;;;23.00;12.50;;;2.00;99.90;;;;;;5031538;28;20112;-48
2021/01/15 00:36:03;;;;;;;23.58;12.65;;;2.00;99.90;;;;;;5030208;28;20692;-47
2021/01/15 00:38:28;;;;;;;22.05;12.57;;;2.00;99.90;;;;;;5030146;28;20034;-48
2021/01/15 00:40:59;;;;;;;24.67;12.85;;;1.90;99.90;;;;;;5031526;28;20087;-48
2021/01/15 00:43:24;;;;;;;21.67;12.63;;;2.00;99.90;;;;;;5031229;28;20036;-47
2021/01/15 00:45:50;;;;;;;21.73;12.85;;;2.00;99.90;;;;;;5030760;28;20033;-48
2021/01/15 00:48:15;;;;;;;26.33;12.75;;;2.00;99.90;;;;;;5031523;28;20025;-48
2021/01/15 00:50:40;;;;;;;22.48;13.32;;;2.00;99.90;;;;;;5029306;28;20021;-47
2021/01/15 00:53:06;;;;;;;23.10;13.50;;;1.90;99.90;;;;;;5031312;28;20071;-49
2021/01/15 00:55:31;;;;;;;23.83;13.60;;;1.90;99.90;;;;;;5030190;28;20033;-47
2021/01/15 00:57:58;;;;;;;24.40;14.05;;;1.90;99.90;;;;;;5030151;28;20097;-47
2021/01/15 01:00:23;;;;;;;20.85;12.90;;;1.90;99.90;;;;;;5031012;28;20231;-48
2021/01/15 01:02:49;;;;;;;25.33;13.68;;;1.90;99.90;;;;;;5031119;28;20029;-48
2021/01/15 01:05:14;;;;;;;21.80;12.95;;;1.90;99.90;;;;;;5028962;28;20032;-49
2021/01/15 01:07:43;;;;;;;23.65;13.20;;;1.90;99.90;;;;;;5029745;28;20025;-48
2021/01/15 01:10:10;;;;;;;24.45;12.90;;;1.90;99.90;;;;;;5030973;28;20029;-49
2021/01/15 01:12:40;;;;;;;25.17;13.68;;;1.90;99.90;;;;;;5030104;28;20017;-47
2021/01/15 01:15:06;;;;;;;24.25;13.30;;;1.90;99.90;;;;;;5030159;28;20100;-47
2021/01/15 01:17:31;;;;;;;21.42;13.27;;;1.90;99.90;;;;;;5029494;28;20514;-48
2021/01/15 01:19:57;;;;;;;24.00;13.95;;;1.90;99.90;;;;;;5030755;28;20315;-47
2021/01/15 01:22:22;;;;;;;27.45;15.25;;;1.90;99.90;;;;;;5030661;28;20108;-48
2021/01/15 01:24:48;;;;;;;26.38;14.13;;;1.90;99.90;;;;;;5030017;28;20164;-48
2021/01/15 01:27:13;;;;;;;25.25;13.85;;;1.90;99.90;;;;;;5029973;28;20014;-48
2021/01/15 01:29:39;;;;;;;22.05;13.25;;;1.90;99.90;;;;;;5030288;28;20057;-48
2021/01/15 01:32:04;;;;;;;25.13;13.70;;;1.80;99.90;;;;;;5030659;28;20426;-49
2021/01/15 01:34:30;;;;;;;26.25;13.88;;;1.90;99.90;;;;;;5030236;28;20108;-48
2021/01/15 01:36:56;;;;;;;28.70;15.07;;;1.90;99.90;;;;;;5030510;28;20033;-48
2021/01/15 01:39:21;;;;;;;22.73;12.38;;;1.90;99.90;;;;;;5030491;28;20022;-47
2021/01/15 01:41:47;;;;;;;25.05;13.98;;;1.90;99.90;;;;;;5030493;28;20518;-48
2021/01/15 01:44:12;;;;;;;27.30;14.60;;;1.90;99.90;;;;;;5029210;28;20034;-48
2021/01/15 01:46:38;;;;;;;22.40;12.43;;;1.90;99.90;;;;;;5029789;28;20083;-48
2021/01/15 01:49:04;;;;;;;27.25;14.68;;;1.90;99.90;;;;;;5030526;28;20294;-48
2021/01/15 01:51:30;;;;;;;26.90;15.15;;;1.90;99.90;;;;;;5030511;28;20485;-47
2021/01/15 01:53:56;;;;;;;27.00;15.25;;;1.90;99.90;;;;;;5030718;28;20159;-48
2021/01/15 01:56:21;;;;;;;26.67;14.73;;;1.80;99.90;;;;;;5027762;28;20108;-47
2021/01/15 01:58:47;;;;;;;31.20;15.60;;;1.80;99.90;;;;;;5030000;28;20115;-49
2021/01/15 02:01:12;;;;;;;29.20;15.05;;;1.90;99.90;;;;;;5029741;28;20379;-48
2021/01/15 02:03:38;;;;;;;31.85;16.58;;;1.90;99.90;;;;;;5030255;28;20036;-47
2021/01/15 02:06:04;;;;;;;28.50;18.30;;;1.90;99.90;;;;;;5028879;28;20103;-47
2021/01/15 02:08:30;;;;;;;29.20;16.13;;;1.80;99.90;;;;;;5030113;28;20030;-48
2021/01/15 02:11:19;;;;;;;28.17;15.68;;;1.80;99.90;;;;;;5028538;28;20033;-49
2021/01/15 02:14:08;;;;;;;32.28;16.42;;;1.80;99.90;;;;;;5029038;28;20024;-49
2021/01/15 02:16:35;;;;;;;28.90;15.05;;;1.80;99.90;;;;;;5027900;28;20501;-48
2021/01/15 02:19:25;;;;;;;26.90;15.00;;;1.70;99.90;;;;;;5029673;28;20048;-49
2021/01/15 02:22:15;;;;;;;25.35;14.93;;;1.70;99.90;;;;;;5029636;28;20057;-49
2021/01/15 02:24:59;;;;;;;25.80;14.85;;;1.70;99.90;;;;;;5029316;28;20101;-49
2021/01/15 02:27:45;;;;;;;25.05;14.40;;;1.70;99.90;;;;;;5028480;28;20025;-48
2021/01/15 02:30:41;;;;;;;27.92;15.25;;;1.70;99.90;;;;;;5029444;28;20257;-48
2021/01/15 02:33:23;;;;;;;33.38;16.10;;;1.70;99.90;;;;;;5029560;28;20435;-48
2021/01/15 02:36:26;;;;;;;31.85;15.02;;;1.70;99.90;;;;;;5028750;28;20029;-48
2021/01/15 02:39:28;;;;;;;25.63;14.10;;;1.70;99.90;;;;;;5029401;28;20025;-47
2021/01/15 02:41:55;;;;;;;30.23;15.65;;;1.70;99.90;;;;;;5029341;28;20034;-48
2021/01/15 02:44:21;;;;;;;28.20;15.10;;;1.80;99.90;;;;;;5029219;28;20406;-47
2021/01/15 02:46:53;;;;;;;27.85;14.43;;;1.70;99.90;;;;;;5028882;28;20033;-48
2021/01/15 02:49:20;;;;;;;21.95;13.15;;;1.60;99.90;;;;;;5028681;28;20284;-47
2021/01/15 02:51:46;;;;;;;27.55;14.68;;;1.70;99.90;;;;;;5029020;28;20024;-47
2021/01/15 02:54:12;;;;;;;27.70;14.27;;;1.60;99.90;;;;;;5029052;28;20518;-47
2021/01/15 02:56:38;;;;;;;27.20;14.90;;;1.60;99.90;;;;;;5026183;28;20065;-47
2021/01/15 02:59:05;;;;;;;26.90;14.57;;;1.60;99.90;;;;;;5028962;28;20411;-48
2021/01/15 03:01:36;;;;;;;30.38;15.63;;;1.60;99.90;;;;;;5028725;28;20064;-48
2021/01/15 03:04:26;;;;;;;28.23;15.20;;;1.60;99.90;;;;;;5028851;28;20037;-47
2021/01/15 03:06:57;;;;;;;28.83;15.40;;;1.60;99.90;;;;;;5028810;28;20029;-47
2021/01/15 03:09:26;;;;;;;24.90;13.73;;;1.60;99.90;;;;;;5028932;28;20121;-47
2021/01/15 03:11:52;;;;;;;30.63;15.45;;;1.50;99.90;;;;;;5028678;28;20029;-47
2021/01/15 03:14:19;;;;;;;29.98;14.95;;;1.50;99.90;;;;;;5029004;28;20176;-50
2021/01/15 03:16:46;;;;;;;24.17;14.05;;;1.50;99.90;;;;;;5028302;28;20029;-46
2021/01/15 03:19:12;;;;;;;28.85;15.65;;;1.50;99.90;;;;;;5028844;28;20076;-47
2021/01/15 03:21:39;;;;;;;29.38;14.90;;;1.50;99.90;;;;;;5028668;28;20029;-48
2021/01/15 03:24:06;;;;;;;29.77;16.25;;;1.50;99.90;;;;;;5027996;28;20022;-46
2021/01/15 03:26:32;;;;;;;32.80;15.68;;;1.50;99.90;;;;;;5025237;28;20075;-47
2021/01/15 03:28:58;;;;;;;29.17;14.57;;;1.50;99.90;;;;;;5028185;28;20375;-48
2021/01/15 03:31:24;;;;;;;27.00;14.43;;;1.50;99.90;;;;;;5028114;28;20017;-50
2021/01/15 03:33:50;;;;;;;28.58;15.23;;;1.50;99.90;;;;;;5028294;28;20022;-48
2021/01/15 03:36:16;;;;;;;25.80;14.32;;;1.50;99.90;;;;;;5027574;28;20032;-47
2021/01/15 03:38:43;;;;;;;30.27;14.70;;;1.50;99.90;;;;;;5028219;28;20024;-47
2021/01/15 03:41:09;;;;;;;29.55;16.00;;;1.50;99.90;;;;;;5027822;28;20025;-46
2021/01/15 03:43:35;;;;;;;24.00;14.15;;;1.40;99.90;;;;;;5027144;28;20018;-48
2021/01/15 03:46:01;;;;;;;26.77;14.52;;;1.50;99.90;;;;;;5025831;28;20479;-46
2021/01/15 03:48:27;;;;;;;26.98;14.82;;;1.50;99.90;;;;;;5026545;28;20223;-47
2021/01/15 03:50:53;;;;;;;30.63;15.65;;;1.50;99.90;;;;;;5027995;28;20556;-47
2021/01/15 03:53:19;;;;;;;28.25;14.20;;;1.50;99.90;;;;;;5027243;28;20037;-49
2021/01/15 03:55:47;;;;;;;26.35;14.45;;;1.40;99.90;;;;;;5027193;28;20041;-47
2021/01/15 03:58:12;;;;;;;25.35;13.38;;;1.50;99.90;;;;;;5027195;28;20033;-48
2021/01/15 04:00:39;;;;;;;26.75;14.10;;;1.40;99.90;;;;;;5028859;28;20443;-47
2021/01/15 04:03:05;;;;;;;27.30;14.13;;;1.40;99.90;;;;;;5028219;28;20386;-47
2021/01/15 04:05:32;;;;;;;22.98;12.63;;;1.40;99.90;;;;;;5027810;28;20022;-47
2021/01/15 04:07:57;;;;;;;24.02;12.35;;;1.40;99.90;;;;;;5028150;28;20025;-49
2021/01/15 04:10:23;;;;;;;28.60;14.40;;;1.50;99.90;;;;;;5028389;28;20079;-48
2021/01/15 04:12:49;;;;;;;27.42;14.30;;;1.50;99.90;;;;;;5028102;28;20035;-48
2021/01/15 04:15:16;;;;;;;21.20;11.70;;;1.50;99.90;;;;;;5027795;28;20034;-48
2021/01/15 04:17:42;;;;;;;23.25;11.70;;;1.50;99.90;;;;;;5028261;28;20025;-48
2021/01/15 04:20:10;;;;;;;25.98;13.73;;;1.50;99.90;;;;;;5028507;28;20029;-47
2021/01/15 04:22:37;;;;;;;20.02;11.43;;;1.40;99.90;;;;;;5028158;28;20144;-47
2021/01/15 04:25:04;;;;;;;21.40;11.13;;;1.40;99.90;;;;;;5027369;28;20490;-46
2021/01/15 04:27:35;;;;;;;22.30;12.25;;;1.40;99.90;;;;;;5026547;28;20032;-47
2021/01/15 04:30:03;;;;;;;22.35;12.07;;;1.40;99.90;;;;;;5027340;28;20155;-47
2021/01/15 04:32:29;;;;;;;22.58;12.18;;;1.40;99.90;;;;;;5030043;28;20033;-47
2021/01/15 04:34:54;;;;;;;23.40;12.52;;;1.40;99.90;;;;;;5030584;28;20033;-49
2021/01/15 04:37:20;;;;;;;25.92;13.40;;;1.40;99.90;;;;;;5030958;28;20037;-46
2021/01/15 04:39:45;;;;;;;22.80;11.88;;;1.40;99.90;;;;;;5030856;28;20116;-46
2021/01/15 04:42:15;;;;;;;20.92;11.77;;;1.40;99.90;;;;;;5030680;28;20185;-46
2021/01/15 04:44:41;;;;;;;20.95;12.63;;;1.40;99.90;;;;;;5030390;28;20021;-49
2021/01/15 04:47:08;;;;;;;22.80;12.63;;;1.40;99.90;;;;;;5030915;28;20036;-46
2021/01/15 04:49:35;;;;;;;22.60;13.13;;;1.40;99.90;;;;;;5027580;28;20033;-49
2021/01/15 04:52:02;;;;;;;21.38;12.07;;;1.30;99.90;;;;;;5031541;28;20037;-47
2021/01/15 04:54:37;;;;;;;23.10;13.60;;;1.30;99.90;;;;;;5029240;28;20029;-48
2021/01/15 04:57:07;;;;;;;22.08;11.73;;;1.30;99.90;;;;;;5029180;28;20482;-46
2021/01/15 04:59:38;;;;;;;21.10;12.85;;;1.30;99.90;;;;;;5031090;28;20033;-50
2021/01/15 05:02:08;;;;;;;24.00;12.35;;;1.30;99.90;;;;;;5031049;28;20041;-47
2021/01/15 05:04:35;;;;;;;26.90;13.40;;;1.30;99.90;;;;;;5030530;28;20076;-50
2021/01/15 05:07:06;;;;;;;21.70;12.85;;;1.30;99.90;;;;;;5031092;28;20022;-48
2021/01/15 05:09:40;;;;;;;27.67;12.73;;;1.30;99.90;;;;;;5030856;28;20671;-47
2021/01/15 05:12:07;;;;;;;20.98;11.57;;;1.30;99.90;;;;;;5030639;28;20043;-48
2021/01/15 05:14:34;;;;;;;21.50;12.18;;;1.30;99.90;;;;;;5029720;28;20067;-47
2021/01/15 05:17:03;;;;;;;25.38;13.45;;;1.30;99.90;;;;;;5031159;28;20064;-47
2021/01/15 05:19:29;;;;;;;21.02;12.32;;;1.30;99.90;;;;;;5029459;28;20037;-46
2021/01/15 05:21:55;;;;;;;21.50;12.35;;;1.30;99.90;;;;;;5030822;28;20036;-48
2021/01/15 05:24:23;;;;;;;23.73;13.35;;;1.40;99.90;;;;;;5029366;28;20025;-49
2021/01/15 05:26:49;;;;;;;28.27;14.65;;;1.40;99.90;;;;;;5030294;28;20252;-47
2021/01/15 05:29:15;;;;;;;26.67;13.65;;;1.30;99.90;;;;;;5030457;28;20076;-47
2021/01/15 05:31:57;;;;;;;27.20;13.55;;;1.30;99.90;;;;;;5030778;28;20048;-47
2021/01/15 05:34:25;;;;;;;23.17;12.75;;;1.30;99.90;;;;;;5029945;28;20025;-47
2021/01/15 05:36:51;;;;;;;22.25;12.93;;;1.30;99.90;;;;;;5029438;28;20021;-47
2021/01/15 05:39:21;;;;;;;31.50;14.75;;;1.30;99.90;;;;;;5030357;28;20022;-48
2021/01/15 05:41:48;;;;;;;22.02;13.25;;;1.30;99.90;;;;;;5028081;28;20025;-47
2021/01/15 05:44:27;;;;;;;22.80;12.75;;;1.30;99.90;;;;;;5030326;28;20029;-48
2021/01/15 05:46:53;;;;;;;27.52;15.07;;;1.30;99.90;;;;;;5030477;28;20025;-47
2021/01/15 05:49:19;;;;;;;23.83;13.68;;;1.30;99.90;;;;;;5030317;28;20091;-50
2021/01/15 05:51:45;;;;;;;28.13;13.90;;;1.30;99.90;;;;;;5030061;28;20053;-47
2021/01/15 05:54:11;;;;;;;23.38;14.13;;;1.30;99.90;;;;;;5030143;28;20025;-47
2021/01/15 05:56:47;;;;;;;23.55;12.40;;;1.30;99.90;;;;;;5029226;28;20267;-47
2021/01/15 05:59:13;;;;;;;23.30;13.18;;;1.30;99.90;;;;;;5030359;28;20056;-47
2021/01/15 06:01:50;;;;;;;24.85;13.38;;;1.30;99.90;;;;;;5030058;28;20519;-47
2021/01/15 06:04:18;;;;;;;22.75;13.25;;;1.20;99.90;;;;;;5030399;28;20477;-47
2021/01/15 06:06:44;;;;;;;22.52;12.20;;;1.20;99.90;;;;;;5029835;28;20348;-49
2021/01/15 06:09:11;;;;;;;22.25;12.27;;;1.20;99.90;;;;;;5030178;28;20106;-47
2021/01/15 06:11:40;;;;;;;24.95;11.98;;;1.30;99.90;;;;;;5030223;28;20022;-47
2021/01/15 06:14:17;;;;;;;21.70;12.57;;;1.20;99.90;;;;;;5029723;28;20014;-47
2021/01/15 06:16:43;;;;;;;23.45;12.20;;;1.20;99.90;;;;;;5028661;28;20038;-48
2021/01/15 06:19:09;;;;;;;24.50;12.77;;;1.20;99.90;;;;;;5029468;28;20025;-47
2021/01/15 06:21:35;;;;;;;20.23;11.27;;;1.20;99.90;;;;;;5029671;28;20029;-47
2021/01/15 06:24:08;;;;;;;24.75;12.82;;;1.10;99.90;;;;;;5029911;28;20045;-44
2021/01/15 06:26:37;;;;;;;23.40;12.10;;;1.10;99.90;;;;;;5026836;28;20022;-44
2021/01/15 06:29:05;;;;;;;24.17;12.82;;;1.10;99.90;;;;;;5030139;28;20118;-44
2021/01/15 06:31:46;;;;;;;23.35;13.07;;;1.00;99.90;;;;;;5028724;28;20036;-43
2021/01/15 06:34:13;;;;;;;23.40;11.98;;;1.00;99.90;;;;;;5029631;28;20021;-46
2021/01/15 06:36:48;;;;;;;22.33;12.75;;;1.00;99.90;;;;;;5029064;28;20034;-44
2021/01/15 06:39:15;;;;;;;27.88;13.02;;;0.90;99.90;;;;;;5029591;28;20103;-45
2021/01/15 06:41:41;;;;;;;23.83;13.07;;;1.00;99.90;;;;;;5029519;28;20291;-44
2021/01/15 06:44:12;;;;;;;23.38;13.20;;;0.90;99.90;;;;;;5029348;28;20448;-44
2021/01/15 06:46:43;;;;;;;28.83;13.65;;;0.90;99.90;;;;;;5028791;28;20037;-44
2021/01/15 06:49:15;;;;;;;25.48;13.43;;;0.90;99.90;;;;;;5027738;28;20033;-44
2021/01/15 06:51:59;;;;;;;26.08;13.05;;;1.00;99.90;;;;;;5027746;28;20552;-44
2021/01/15 06:54:34;;;;;;;22.95;12.85;;;1.00;99.90;;;;;;5028347;28;20026;-43
2021/01/15 06:57:11;;;;;;;24.20;12.40;;;1.00;99.90;;;;;;5027023;28;20052;-45
2021/01/15 06:59:38;;;;;;;24.33;13.50;;;0.90;99.90;;;;;;5027463;28;20401;-45
2021/01/15 07:02:11;;;;;;;29.05;13.77;;;0.90;99.90;;;;;;5025236;28;20116;-47
2021/01/15 07:05:15;;;;;;;25.55;13.05;;;1.00;99.90;;;;;;5025323;28;20030;-44
2021/01/15 07:07:42;;;;;;;21.67;12.10;;;1.00;99.90;;;;;;5016843;28;20034;-44
2021/01/15 07:10:08;;;;;;;26.50;13.90;;;1.00;99.90;;;;;;5027236;28;20036;-45
2021/01/15 07:12:41;;;;;;;21.30;12.38;;;1.00;99.90;;;;;;5027194;28;20030;-46
2021/01/15 07:15:17;;;;;;;25.42;12.95;;;1.00;99.90;;;;;;5025691;28;20025;-45
2021/01/15 07:17:47;;;;;;;21.98;11.73;;;1.00;99.90;;;;;;5026952;28;20462;-44
2021/01/15 07:20:21;;;;;;;20.05;12.15;;;1.00;99.90;;;;;;5027177;28;20371;-45
2021/01/15 07:22:59;;;;;;;22.15;12.75;;;1.00;99.90;;;;;;5025330;28;20584;-44
2021/01/15 07:25:24;;;;;;;24.92;13.07;;;1.00;99.90;;;;;;5023798;28;20049;-44
2021/01/15 07:27:50;;;;;;;22.17;12.68;;;1.00;99.90;;;;;;5027036;28;20052;-45
2021/01/15 07:30:23;;;;;;;25.58;12.82;;;1.00;99.90;;;;;;5027958;28;20030;-45
2021/01/15 07:32:57;;;;;;;23.20;12.82;;;1.00;99.90;;;;;;5021623;28;20029;-45
2021/01/15 07:35:27;;;;;;;24.20;13.18;;;1.00;99.90;;;;;;5022541;28;20120;-45
2021/01/15 07:38:11;;;;;;;19.27;11.27;;;1.00;99.90;;;;;;5028585;28;20270;-45
2021/01/15 07:40:37;;;;;;;23.42;11.98;;;1.00;99.90;;;;;;5014999;28;20453;-45
2021/01/15 07:43:03;;;;;;;23.15;12.35;;;1.00;99.90;;;;;;5022716;28;20038;-45
2021/01/15 07:45:31;;;;;;;24.63;11.93;;;1.00;99.90;;;;;;5024580;28;20116;-43
2021/01/15 07:48:02;;;;;;;23.05;13.70;;;1.00;99.90;;;;;;5024912;28;20014;-45
2021/01/15 07:50:33;;;;;;;22.05;12.02;;;1.00;99.90;;;;;;5027798;28;20087;-44
2021/01/15 07:53:01;;;;;;;;;;;1.00;99.90;;;;;;5025739;28;20102;-44
2021/01/15 07:55:26;;;;;;;23.45;12.18;;;1.00;99.90;;;;;;5026466;28;19905;-44
2021/01/15 07:57:56;;;;;;;22.88;12.18;;;1.00;99.90;;;;;;5027689;28;20025;-44
2021/01/15 08:00:24;;;;;;;25.13;12.90;;;1.00;99.90;;;;;;5025654;28;20033;-44
2021/01/15 08:02:57;;;;;;;21.75;12.75;;;1.00;99.90;;;;;;5028146;28;20051;-45
2021/01/15 08:05:22;;;;;;;25.02;11.88;;;1.00;99.90;;;;;;5027419;28;20025;-46
2021/01/15 08:07:48;;;;;;;21.50;11.80;;;1.00;99.90;;;;;;5029948;28;20028;-45
2021/01/15 08:10:24;;;;;;;23.92;11.68;;;1.00;99.90;;;;;;5030841;28;20034;-44
2021/01/15 08:12:49;;;;;;;22.65;12.13;;;1.00;99.90;;;;;;5030490;28;20025;-44
2021/01/15 08:15:28;;;;;;;23.70;11.77;;;1.00;99.90;;;;;;5029243;28;20484;-44
2021/01/15 08:17:53;;;;;;;21.20;12.25;;;1.00;99.90;;;;;;5030548;28;20651;-44
2021/01/15 08:20:20;;;;;;;25.23;13.20;;;1.00;99.90;;;;;;5031039;28;20045;-45
2021/01/15 08:22:48;;;;;;;20.73;11.93;;;1.00;99.90;;;;;;5031062;28;20025;-45
2021/01/15 08:25:23;;;;;;;23.30;11.85;;;1.00;99.90;;;;;;5029444;28;20136;-45
2021/01/15 08:27:49;;;;;;;20.63;11.98;;;1.00;99.90;;;;;;5029230;28;20049;-44
2021/01/15 08:30:14;;;;;;;22.70;12.63;;;1.00;99.90;;;;;;5031057;28;20022;-45
2021/01/15 08:32:40;;;;;;;23.33;12.75;;;1.00;99.90;;;;;;5029919;28;20072;-44
2021/01/15 08:35:06;;;;;;;24.77;12.95;;;1.00;99.90;;;;;;5030098;28;20506;-44
2021/01/15 08:37:32;;;;;;;23.13;12.45;;;1.00;99.90;;;;;;5030445;28;20057;-45
2021/01/15 08:39:57;;;;;;;22.85;12.38;;;1.00;99.90;;;;;;5030498;28;20063;-44
2021/01/15 08:42:24;;;;;;;25.67;12.82;;;1.00;99.90;;;;;;5030170;28;20406;-48
2021/01/15 08:44:50;;;;;;;21.92;12.00;;;1.00;99.90;;;;;;5029806;28;20021;-47
2021/01/15 08:47:17;;;;;;;27.15;12.80;;;1.00;99.90;;;;;;5028996;28;20029;-47
2021/01/15 08:49:54;;;;;;;21.42;11.82;;;1.00;99.90;;;;;;5029679;28;20033;-44
2021/01/15 08:52:42;;;;;;;25.55;13.25;;;1.00;99.90;;;;;;5030993;28;20367;-45
2021/01/15 08:55:10;;;;;;;26.65;13.27;;;1.10;99.90;;;;;;5021749;28;20041;-48
2021/01/15 08:57:36;;;;;;;27.05;13.65;;;1.00;99.90;;;;;;5029743;28;20033;-45
2021/01/15 09:00:09;;;;;;;23.10;12.13;;;1.10;99.90;;;;;;5030913;28;20021;-45
2021/01/15 09:02:39;;;;;;;22.50;11.90;;;1.10;99.90;;;;;;5030757;28;20018;-46
2021/01/15 09:05:10;;;;;;;22.02;11.70;;;1.20;99.90;;;;;;5030321;28;20506;-47
2021/01/15 09:07:44;;;;;;;21.70;11.85;;;1.20;99.90;;;;;;5030848;28;20045;-46
2021/01/15 09:10:11;;;;;;;22.13;11.60;;;1.20;99.90;;;;;;5029465;28;20031;-45
2021/01/15 09:12:40;;;;;;;24.42;12.65;;;1.20;99.90;;;;;;5030696;28;20025;-45
2021/01/15 09:15:07;;;;;;;22.02;11.20;;;1.20;99.90;;;;;;5030168;28;20022;-45
2021/01/15 09:17:33;;;;;;;21.73;12.10;;;1.20;99.90;;;;;;5029673;28;20036;-46
2021/01/15 09:19:58;;;;;;;24.40;11.90;;;1.20;99.90;;;;;;5030803;28;20120;-45
2021/01/15 09:22:26;;;;;;;18.40;11.02;;;1.20;99.90;;;;;;5030610;28;20368;-46
2021/01/15 09:24:52;;;;;;;16.85;10.35;;;1.20;99.90;;;;;;5030331;28;20037;-45
2021/01/15 09:27:20;;;;;;;17.85;11.50;;;1.30;99.90;;;;;;5029596;28;20177;-45
2021/01/15 09:29:46;;;;;;;21.77;11.43;;;1.30;99.90;;;;;;5030611;28;20032;-46
2021/01/15 09:32:11;;;;;;;21.98;10.85;;;1.40;99.90;;;;;;5030492;28;20241;-47
2021/01/15 09:34:37;;;;;;;19.95;11.23;;;1.40;99.90;;;;;;5029028;28;20390;-49
2021/01/15 09:37:03;;;;;;;22.10;12.15;;;1.40;99.90;;;;;;5030489;28;20037;-48
2021/01/15 09:39:28;;;;;;;20.42;12.00;;;1.40;99.90;;;;;;5029790;28;20387;-46
2021/01/15 09:41:57;;;;;;;22.02;11.38;;;1.40;99.90;;;;;;5018988;28;20048;-47
2021/01/15 09:44:25;;;;;;;19.88;11.05;;;1.40;99.90;;;;;;5007992;28;20033;-46
2021/01/15 09:46:57;;;;;;;22.73;11.93;;;1.40;99.90;;;;;;5009396;28;20116;-46
2021/01/15 09:49:22;;;;;;;25.15;12.63;;;1.50;99.90;;;;;;5009739;28;20109;-46
2021/01/15 09:51:50;;;;;;;22.42;12.82;;;1.50;99.90;;;;;;5023815;28;20535;-46
2021/01/15 09:54:15;;;;;;;20.92;12.05;;;1.50;99.90;;;;;;5029125;28;20487;-46
2021/01/15 09:56:41;;;;;;;21.33;11.98;;;1.60;99.90;;;;;;5028439;28;20232;-47
2021/01/15 09:59:07;;;;;;;22.70;12.65;;;1.60;99.90;;;;;;5029371;28;20156;-45
2021/01/15 10:01:33;;;;;;;21.35;11.38;;;1.60;99.90;;;;;;5029369;28;20033;-48
2021/01/15 10:04:00;;;;;;;20.73;11.23;;;1.70;99.90;;;;;;5028848;28;20029;-46
2021/01/15 10:06:28;;;;;;;20.60;11.27;;;1.70;99.90;;;;;;5028657;28;20051;-47
2021/01/15 10:08:59;;;;;;;17.63;10.55;;;1.80;99.90;;;;;;5029048;28;20514;-48
2021/01/15 10:11:27;;;;;;;20.92;12.02;;;1.90;99.90;;;;;;5029218;28;20554;-47
2021/01/15 10:13:57;;;;;;;17.52;10.40;;;1.90;99.90;;;;;;5028902;28;20037;-47
2021/01/15 10:16:23;;;;;;;19.60;11.88;;;1.90;99.90;;;;;;5028001;28;20048;-48
2021/01/15 10:18:50;;;;;;;19.52;11.52;;;1.90;99.90;;;;;;5028665;28;20120;-46
2021/01/15 10:21:23;;;;;;;20.05;11.25;;;2.00;99.90;;;;;;5029507;28;20068;-46
2021/01/15 10:23:49;;;;;;;22.60;11.13;;;1.90;99.90;;;;;;5028556;28;20151;-46
2021/01/15 10:26:25;;;;;;;16.92;10.05;;;1.90;99.90;;;;;;5026924;28;20148;-46
2021/01/15 10:28:56;;;;;;;18.35;10.20;;;1.90;99.90;;;;;;5029029;28;20083;-46
2021/01/15 10:31:35;;;;;;;15.48;9.75;;;1.90;99.90;;;;;;5028826;28;20104;-47
2021/01/15 10:34:03;;;;;;;18.88;10.13;;;1.80;99.90;;;;;;5029366;28;20049;-47
2021/01/15 10:36:29;;;;;;;17.13;9.93;;;1.80;99.90;;;;;;5028785;28;20348;-47
2021/01/15 10:38:54;;;;;;;21.00;10.95;;;1.70;99.90;;;;;;5029442;28;20060;-48
2021/01/15 10:41:34;;;;;;;17.25;9.60;;;1.80;99.90;;;;;;5028283;28;20519;-46
2021/01/15 10:44:05;;;;;;;20.27;10.32;;;1.70;99.90;;;;;;5027952;28;20026;-45
2021/01/15 10:46:38;;;;;;;17.00;9.57;;;1.70;99.90;;;;;;5028117;28;20018;-46
2021/01/15 10:49:04;;;;;;;15.60;9.43;;;1.70;99.90;;;;;;5029377;28;20037;-46
2021/01/15 10:51:30;;;;;;;17.55;8.45;;;1.80;99.90;;;;;;5027582;28;20110;-46
2021/01/15 10:53:56;;;;;;;15.85;8.32;;;1.70;99.90;;;;;;5027771;28;20030;-48
2021/01/15 10:56:21;;;;;;;13.50;7.72;;;1.70;99.90;;;;;;5027642;28;20040;-46
2021/01/15 10:58:47;;;;;;;13.57;7.45;;;1.70;99.90;;;;;;5029188;28;20033;-47
2021/01/15 11:01:12;;;;;;;14.30;7.90;;;1.70;99.90;;;;;;5029134;28;20439;-47
2021/01/15 11:03:41;;;;;;;14.20;8.13;;;1.60;99.90;;;;;;5029265;28;20025;-46
2021/01/15 11:06:07;;;;;;;13.82;8.00;;;1.60;99.90;;;;;;5028337;28;20022;-46
2021/01/15 11:08:33;;;;;;;16.17;9.45;;;1.70;99.90;;;;;;5028969;28;20041;-46
2021/01/15 11:10:58;;;;;;;13.00;8.43;;;1.60;99.90;;;;;;5029083;28;20021;-46
2021/01/15 11:13:23;;;;;;;23.10;10.32;;;1.60;99.90;;;;;;5028694;28;20025;-46
2021/01/15 11:15:49;;;;;;;15.43;8.88;;;1.60;99.90;;;;;;5027385;28;20458;-46
2021/01/15 11:18:14;;;;;;;13.60;8.15;;;1.50;99.90;;;;;;5008544;28;20088;-47
2021/01/15 11:20:43;;;;;;;15.68;9.15;;;1.50;99.90;;;;;;5020224;28;20025;-45
2021/01/15 11:23:08;;;;;;;16.48;10.23;;;1.50;99.90;;;;;;5027118;28;20034;-45
2021/01/15 11:25:34;;;;;;;12.70;8.50;;;1.50;99.90;;;;;;5026713;28;20026;-46
2021/01/15 11:27:59;;;;;;;15.40;8.85;;;1.50;99.90;;;;;;5028074;28;20475;-45
2021/01/15 11:30:25;;;;;;;18.23;9.43;;;1.40;99.90;;;;;;5028491;28;20021;-47
2021/01/15 11:32:50;;;;;;;20.92;10.18;;;1.50;99.90;;;;;;5027907;28;20033;-46
2021/01/15 11:35:16;;;;;;;16.85;9.32;;;1.50;99.90;;;;;;5027638;28;20032;-46
2021/01/15 11:37:41;;;;;;;13.60;8.50;;;1.40;99.90;;;;;;5028355;28;20025;-49
2021/01/15 11:40:08;;;;;;;16.38;8.65;;;1.40;99.90;;;;;;5026262;28;20029;-47
2021/01/15 11:42:34;;;;;;;15.70;9.57;;;1.30;99.90;;;;;;5028482;28;20045;-45
2021/01/15 11:45:00;;;;;;;15.73;8.82;;;1.30;99.90;;;;;;5027845;28;20459;-46
2021/01/15 11:47:26;;;;;;;14.13;8.23;;;1.30;99.90;;;;;;5027001;28;20067;-46
2021/01/15 11:49:51;;;;;;;17.20;9.13;;;1.30;99.90;;;;;;5028368;28;20029;-47
2021/01/15 11:52:18;;;;;;;16.58;8.93;;;1.30;99.90;;;;;;5028451;28;20132;-47
2021/01/15 11:54:43;;;;;;;15.45;8.95;;;1.30;99.90;;;;;;5027759;28;20044;-49
2021/01/15 11:57:10;;;;;;;18.70;9.60;;;1.30;99.90;;;;;;5028099;28;20187;-46
2021/01/15 11:59:35;;;;;;;17.52;9.15;;;1.30;99.90;;;;;;5028204;28;20226;-46
2021/01/15 12:02:00;;;;;;;17.27;10.20;;;1.30;99.90;;;;;;5027881;28;20140;-47
2021/01/15 12:04:26;;;;;;;17.00;9.32;;;1.30;99.90;;;;;;5027605;28;20287;-47
2021/01/15 12:06:55;;;;;;;20.00;9.18;;;1.30;99.90;;;;;;5028244;28;20029;-46
2021/01/15 12:09:21;;;;;;;15.20;8.82;;;1.40;99.90;;;;;;5028047;28;20037;-50
2021/01/15 12:11:47;;;;;;;17.73;9.52;;;1.40;99.90;;;;;;5028034;28;20026;-47
2021/01/15 12:14:13;;;;;;;17.60;10.48;;;1.40;99.90;;;;;;5028186;28;20072;-47
2021/01/15 12:16:39;;;;;;;18.05;10.52;;;1.30;99.90;;;;;;5027540;28;20088;-48
2021/01/15 12:19:07;;;;;;;17.30;10.93;;;1.30;99.90;;;;;;5028139;28;20632;-48
2021/01/15 12:21:33;;;;;;;19.80;10.68;;;1.30;99.90;;;;;;5028183;28;20466;-46
2021/01/15 12:23:59;;;;;;;18.27;10.57;;;1.30;99.90;;;;;;5028165;28;20065;-48
2021/01/15 12:26:25;;;;;;;22.10;11.43;;;1.30;99.90;;;;;;5026933;28;20407;-49
2021/01/15 12:28:50;;;;;;;20.58;11.73;;;1.30;99.90;;;;;;5028148;28;20017;-46
2021/01/15 12:31:16;;;;;;;23.20;11.98;;;1.20;99.90;;;;;;5028320;28;20108;-48
2021/01/15 12:33:42;;;;;;;17.42;10.52;;;1.20;99.90;;;;;;5026661;28;20120;-48
2021/01/15 12:36:10;;;;;;;22.42;11.65;;;1.10;99.90;;;;;;5027319;28;20359;-46
2021/01/15 12:38:36;;;;;;;16.40;10.23;;;1.10;99.90;;;;;;5027849;28;20048;-48
2021/01/15 12:41:01;;;;;;;17.40;9.90;;;1.10;99.90;;;;;;5027782;28;20029;-46
2021/01/15 12:43:27;;;;;;;19.63;10.02;;;1.10;99.90;;;;;;5027952;28;20121;-46
2021/01/15 12:45:52;;;;;;;20.60;11.05;;;1.10;99.90;;;;;;5027033;28;20045;-46